createdAt,value
2023-04-18T00:00:18.455Z,8.71
2023-04-18T00:04:21.596Z,8.65
2023-04-18T00:08:24.927Z,8.49
2023-04-18T00:12:29.276Z,8.43
2023-04-18T00:16:33.153Z,8.38
2023-04-18T00:20:38.978Z,8.40
2023-04-18T00:24:41.876Z,8.44
2023-04-18T00:28:46.076Z,8.37
2023-04-18T00:32:48.963Z,8.21
2023-04-18T00:36:52.041Z,8.12
2023-04-18T00:40:54.946Z,8.24
2023-04-18T00:44:59.210Z,8.14
2023-04-18T00:49:02.348Z,8.06
2023-04-18T00:53:06.013Z,8.04
2023-04-18T00:57:09.240Z,7.95
2023-04-18T01:01:13.805Z,7.88
2023-04-18T01:05:16.790Z,7.92
2023-04-18T01:09:19.690Z,7.67
2023-04-18T01:13:22.609Z,7.50
2023-04-18T01:17:28.507Z,7.58
2023-04-18T01:21:34.022Z,7.51
2023-04-18T01:25:38.374Z,7.41
2023-04-18T01:29:41.686Z,7.32
2023-04-18T01:33:44.553Z,7.32
2023-04-18T01:37:47.518Z,7.15
2023-04-18T01:41:51.740Z,7.10
2023-04-18T01:45:54.575Z,6.99
2023-04-18T01:49:57.431Z,7.04
2023-04-18T01:54:00.280Z,7.01
2023-04-18T01:58:04.467Z,7.13
2023-04-18T02:02:08.383Z,7.10
2023-04-18T02:06:11.761Z,6.95
2023-04-18T02:10:14.640Z,6.82
2023-04-18T02:14:18.840Z,6.90
2023-04-18T02:18:22.105Z,6.91
2023-04-18T02:22:25.026Z,6.84
2023-04-18T02:26:27.888Z,6.81
2023-04-18T02:30:35.309Z,6.61
2023-04-18T02:34:38.579Z,6.65
2023-04-18T02:38:41.571Z,6.56
2023-04-18T02:42:44.464Z,6.71
2023-04-18T02:46:51.986Z,6.66
2023-04-18T02:50:54.874Z,6.62
2023-04-18T02:54:57.873Z,6.55
2023-04-18T02:59:06.212Z,6.51
2023-04-18T03:03:39.717Z,6.49
2023-04-18T03:08:04.468Z,6.56
2023-04-18T03:12:07.370Z,6.54
2023-04-18T03:16:12.494Z,6.47
2023-04-18T03:20:17.778Z,6.44
2023-04-18T03:24:20.794Z,6.38
2023-04-18T03:28:26.824Z,6.46
2023-04-18T03:32:29.912Z,6.40
2023-04-18T03:36:34.403Z,6.37
2023-04-18T03:40:37.635Z,6.30
2023-04-18T03:44:47.536Z,6.33
2023-04-18T03:48:50.653Z,6.21
2023-04-18T03:52:55.198Z,6.26
2023-04-18T03:56:59.431Z,6.28
2023-04-18T04:01:02.944Z,6.19
2023-04-18T04:05:06.470Z,6.20
2023-04-18T04:09:11.628Z,6.18
2023-04-18T04:13:15.123Z,6.03
2023-04-18T04:17:18.888Z,6.05
2023-04-18T04:21:21.817Z,5.97
2023-04-18T04:25:29.832Z,6.02
2023-04-18T04:29:38.720Z,6.00
2023-04-18T04:33:42.655Z,5.96
2023-04-18T04:37:52.831Z,5.96
2023-04-18T04:42:04.713Z,5.92
2023-04-18T04:46:16.241Z,5.92
2023-04-18T04:50:19.784Z,5.97
2023-04-18T04:54:22.683Z,5.97
2023-04-18T04:58:27.244Z,5.95
2023-04-18T05:02:59.982Z,6.00
2023-04-18T05:07:03.716Z,6.03
2023-04-18T05:11:07.058Z,6.03
2023-04-18T05:15:12.520Z,6.05
2023-04-18T05:19:15.941Z,6.04
2023-04-18T05:23:19.330Z,6.04
2023-04-18T05:27:22.965Z,6.08
2023-04-18T05:31:27.796Z,6.15
2023-04-18T05:35:30.851Z,6.19
2023-04-18T05:39:34.030Z,6.21
2023-04-18T05:43:36.868Z,6.15
2023-04-18T05:47:41.212Z,6.15
2023-04-18T05:51:46.280Z,6.17
2023-04-18T05:55:50.464Z,6.13
2023-04-18T05:59:53.245Z,6.13
2023-04-18T06:03:57.573Z,6.21
2023-04-18T06:08:00.472Z,6.37
2023-04-18T06:12:03.389Z,6.62
2023-04-18T06:16:06.664Z,6.81
2023-04-18T06:20:11.760Z,6.92
2023-04-18T06:24:14.784Z,7.04
2023-04-18T06:28:17.824Z,7.18
2023-04-18T06:32:20.795Z,7.33
2023-04-18T06:36:25.173Z,7.41
2023-04-18T06:40:28.076Z,7.60
2023-04-18T06:44:32.199Z,7.47
2023-04-18T06:48:35.390Z,7.64
2023-04-18T06:52:44.201Z,7.80
2023-04-18T06:56:47.089Z,7.73
2023-04-18T07:00:52.049Z,7.74
2023-04-18T07:04:55.072Z,7.98
2023-04-18T07:09:01.000Z,8.15
2023-04-18T07:13:03.962Z,8.39
2023-04-18T07:17:07.299Z,8.72
2023-04-18T07:21:10.303Z,8.83
2023-04-18T07:25:14.619Z,9.17
2023-04-18T07:29:19.404Z,9.21
2023-04-18T07:33:22.287Z,9.92
2023-04-18T07:37:25.299Z,10.37
2023-04-18T07:41:29.521Z,10.04
2023-04-18T07:45:33.509Z,10.20
2023-04-18T07:49:36.552Z,10.40
2023-04-18T07:53:41.096Z,10.60
2023-04-18T07:57:50.268Z,10.85
2023-04-18T08:01:53.585Z,11.07
2023-04-18T08:05:56.797Z,11.70
2023-04-18T08:10:00.183Z,13.07
2023-04-18T08:14:04.531Z,11.85
2023-04-18T08:18:07.837Z,12.46
2023-04-18T08:22:11.161Z,12.44
2023-04-18T08:26:14.208Z,12.49
2023-04-18T08:30:18.503Z,12.93
2023-04-18T08:34:21.508Z,11.88
2023-04-18T08:38:24.407Z,12.37
2023-04-18T08:42:29.821Z,12.44
2023-04-18T08:46:35.913Z,12.47
2023-04-18T08:50:38.824Z,13.26
2023-04-18T08:54:43.097Z,13.02
2023-04-18T08:58:46.110Z,12.61
2023-04-18T09:02:50.994Z,13.68
2023-04-18T09:06:54.100Z,13.13
2023-04-18T09:11:06.963Z,13.02
2023-04-18T09:15:11.011Z,12.31
2023-04-18T09:19:18.612Z,11.87
2023-04-18T09:23:24.554Z,12.34
2023-04-18T09:27:27.913Z,12.24
2023-04-18T09:31:30.991Z,12.53
2023-04-18T09:35:35.950Z,11.95
2023-04-18T09:39:39.764Z,12.44
2023-04-18T09:43:42.766Z,12.50
2023-04-18T09:47:46.097Z,12.50
2023-04-18T09:51:51.610Z,12.08
2023-04-18T09:55:57.699Z,11.91
2023-04-18T10:00:03.471Z,11.74
2023-04-18T10:04:09.317Z,11.28
2023-04-18T10:08:13.932Z,11.33
2023-04-18T10:12:18.143Z,11.61
2023-04-18T10:16:21.579Z,11.58
2023-04-18T10:20:25.655Z,12.31
2023-04-18T10:24:50.098Z,11.68
2023-04-18T10:28:54.577Z,11.68
2023-04-18T10:32:57.894Z,11.79
2023-04-18T10:37:07.242Z,11.67
2023-04-18T10:41:21.394Z,12.05
2023-04-18T10:45:24.659Z,13.57
2023-04-18T10:49:31.132Z,12.95
2023-04-18T10:53:35.889Z,12.14
2023-04-18T10:57:41.689Z,12.41
2023-04-18T11:01:47.596Z,12.27
2023-04-18T11:05:50.543Z,12.42
2023-04-18T11:09:54.695Z,12.47
2023-04-18T11:13:59.678Z,12.55
2023-04-18T11:18:03.405Z,13.97
2023-04-18T11:22:06.364Z,13.25
2023-04-18T11:26:09.333Z,13.18
2023-04-18T11:30:14.775Z,13.74
2023-04-18T11:34:17.780Z,13.45
2023-04-18T11:42:27.066Z,12.60
2023-04-18T11:46:40.132Z,12.65
2023-04-18T11:50:43.114Z,12.98
2023-04-18T11:54:46.174Z,13.38
2023-04-18T11:58:49.103Z,14.59
2023-04-18T12:02:54.233Z,14.35
2023-04-18T12:06:57.676Z,14.02
2023-04-18T12:11:00.618Z,13.67
2023-04-18T12:15:04.657Z,13.95
2023-04-18T12:19:11.376Z,13.31
2023-04-18T12:23:29.817Z,13.31
2023-04-18T12:27:47.834Z,13.58
2023-04-18T12:31:50.867Z,13.43
2023-04-18T12:35:56.138Z,14.56
2023-04-18T12:39:59.394Z,15.06
2023-04-18T12:44:02.382Z,15.00
2023-04-18T12:48:05.772Z,14.74
2023-04-18T12:52:10.281Z,13.69
2023-04-18T12:56:15.318Z,13.90
2023-04-18T13:00:18.427Z,14.37
2023-04-18T13:04:21.881Z,14.78
2023-04-18T13:08:26.358Z,14.23
2023-04-18T13:12:30.644Z,14.19
2023-04-18T13:16:33.645Z,13.79
2023-04-18T13:20:37.182Z,14.30
2023-04-18T13:24:41.561Z,14.11
2023-04-18T13:28:44.588Z,14.46
2023-04-18T13:32:47.603Z,14.18
2023-04-18T13:36:50.594Z,14.21
2023-04-18T13:41:08.612Z,14.15
2023-04-18T13:45:14.938Z,14.32
2023-04-18T13:49:17.819Z,14.67
2023-04-18T13:53:21.094Z,14.63
2023-04-18T13:57:25.390Z,14.54
2023-04-18T14:01:28.721Z,14.21
2023-04-18T14:05:32.660Z,14.44
2023-04-18T14:09:35.892Z,15.38
2023-04-18T14:13:40.388Z,15.54
2023-04-18T14:17:45.541Z,14.80
2023-04-18T14:21:48.910Z,15.11
2023-04-18T14:25:51.766Z,15.24
2023-04-18T14:29:55.984Z,15.46
2023-04-18T14:33:58.830Z,15.18
2023-04-18T14:38:01.830Z,15.12
2023-04-18T14:42:04.974Z,15.78
2023-04-18T14:46:13.918Z,16.71
2023-04-18T14:50:17.386Z,17.72
2023-04-18T14:54:20.491Z,17.01
2023-04-18T14:58:23.393Z,16.68
2023-04-18T15:02:27.965Z,16.91
2023-04-18T15:06:31.242Z,16.97
2023-04-18T15:10:35.390Z,17.60
2023-04-18T15:14:38.356Z,17.18
2023-04-18T15:18:43.580Z,16.27
2023-04-18T15:22:46.849Z,16.74
2023-04-18T15:26:49.832Z,15.94
2023-04-18T15:30:52.999Z,16.88
2023-04-18T15:34:57.586Z,17.28
2023-04-18T15:39:00.596Z,17.01
2023-04-18T15:43:04.131Z,16.94
2023-04-18T15:47:07.209Z,16.55
2023-04-18T15:51:11.706Z,17.01
2023-04-18T15:55:14.851Z,17.40
2023-04-18T15:59:17.846Z,16.94
2023-04-18T16:03:21.195Z,16.57
2023-04-18T16:07:25.959Z,17.00
2023-04-18T16:11:29.122Z,17.09
2023-04-18T16:15:32.423Z,16.82
2023-04-18T16:19:38.276Z,16.66
2023-04-18T16:23:42.605Z,17.04
2023-04-18T16:27:46.089Z,16.90
2023-04-18T16:31:49.122Z,16.94
2023-04-18T16:35:52.284Z,16.70
2023-04-18T16:39:56.609Z,16.49
2023-04-18T16:43:59.566Z,16.90
2023-04-18T16:48:02.664Z,16.77
2023-04-18T16:52:05.904Z,17.00
2023-04-18T16:56:10.210Z,16.64
2023-04-18T17:00:13.806Z,16.01
2023-04-18T17:04:17.360Z,15.61
2023-04-18T17:08:20.576Z,15.46
2023-04-18T17:12:24.923Z,16.08
2023-04-18T17:16:27.900Z,15.74
2023-04-18T17:20:30.960Z,15.53
2023-04-18T17:24:33.859Z,15.72
2023-04-18T17:28:38.137Z,15.40
2023-04-18T17:32:45.829Z,15.18
2023-04-18T17:36:48.889Z,15.31
2023-04-18T17:40:58.850Z,14.73
2023-04-18T17:45:04.037Z,14.56
2023-04-18T17:49:07.042Z,14.45
2023-04-18T17:53:10.188Z,14.38
2023-04-18T17:57:13.182Z,14.31
2023-04-18T18:01:17.578Z,13.98
2023-04-18T18:05:20.653Z,13.56
2023-04-18T18:09:23.769Z,13.23
2023-04-18T18:13:26.868Z,13.18
2023-04-18T18:17:31.486Z,13.19
2023-04-18T18:21:34.611Z,13.10
2023-04-18T18:25:37.909Z,12.98
2023-04-18T18:29:41.015Z,12.69
2023-04-18T18:33:45.753Z,12.47
2023-04-18T18:37:48.910Z,12.40
2023-04-18T18:41:52.234Z,12.29
2023-04-18T18:45:55.507Z,12.19
2023-04-18T18:49:59.752Z,12.07
2023-04-18T18:54:02.677Z,12.10
2023-04-18T18:58:07.842Z,12.04
2023-04-18T19:02:11.688Z,11.97
2023-04-18T19:06:16.120Z,11.94
2023-04-18T19:10:19.075Z,11.87
2023-04-18T19:14:22.055Z,11.76
2023-04-18T19:18:24.999Z,11.71
2023-04-18T19:22:29.490Z,11.63
2023-04-18T19:26:35.063Z,11.49
2023-04-18T19:30:38.087Z,11.45
2023-04-18T19:34:41.064Z,11.39
2023-04-18T19:38:45.481Z,11.47
2023-04-18T19:42:48.721Z,11.43
2023-04-18T19:46:54.326Z,11.50
2023-04-18T19:50:57.434Z,11.34
2023-04-18T19:55:01.913Z,11.30
2023-04-18T19:59:06.069Z,11.31
2023-04-18T20:03:09.617Z,11.22
2023-04-18T20:07:12.592Z,11.18
2023-04-18T20:11:16.859Z,10.99
2023-04-18T20:15:19.864Z,10.96
2023-04-18T20:19:24.600Z,10.90
2023-04-18T20:23:27.541Z,10.77
2023-04-18T20:27:31.814Z,10.75
2023-04-18T20:31:35.112Z,10.70
2023-04-18T20:35:38.893Z,10.62
2023-04-18T20:39:42.276Z,10.59
2023-04-18T20:43:46.937Z,10.56
2023-04-18T20:47:49.900Z,10.58
2023-04-18T20:51:52.867Z,10.62
2023-04-18T20:55:56.020Z,10.58
2023-04-18T21:00:00.514Z,10.64
2023-04-18T21:04:03.609Z,10.79
2023-04-18T21:08:06.800Z,10.94
2023-04-18T21:12:09.781Z,11.02
2023-04-18T21:16:14.137Z,11.08
2023-04-18T21:20:17.232Z,11.14
2023-04-18T21:24:20.122Z,11.15
2023-04-18T21:28:23.048Z,11.15
2023-04-18T21:32:27.612Z,11.17
2023-04-18T21:36:31.660Z,11.18
2023-04-18T21:40:34.552Z,11.17
2023-04-18T21:44:37.440Z,11.19
2023-04-18T21:48:42.077Z,11.19
2023-04-18T21:52:44.938Z,11.22
2023-04-18T21:56:48.097Z,11.23
2023-04-18T22:00:51.072Z,11.17
2023-04-18T22:04:55.410Z,11.18
2023-04-18T22:08:58.498Z,11.17
2023-04-18T22:13:01.435Z,11.17
2023-04-18T22:17:04.930Z,11.12
2023-04-18T22:21:10.477Z,11.14
2023-04-18T22:25:13.403Z,11.13
2023-04-18T22:29:16.293Z,11.16
2023-04-18T22:33:19.233Z,11.15
2023-04-18T22:37:23.825Z,11.15
2023-04-18T22:41:27.070Z,11.13
2023-04-18T22:45:29.942Z,11.16
2023-04-18T22:49:33.142Z,11.17
2023-04-18T22:53:37.488Z,11.15
2023-04-18T22:57:40.360Z,11.15
2023-04-18T23:01:43.302Z,11.13
2023-04-18T23:05:46.232Z,11.15
2023-04-18T23:09:50.453Z,11.13
2023-04-18T23:13:53.354Z,11.15
2023-04-18T23:17:56.314Z,11.14
2023-04-18T23:22:01.899Z,11.17
2023-04-18T23:26:12.309Z,11.18
2023-04-18T23:30:15.386Z,11.20
2023-04-18T23:34:18.390Z,11.20
2023-04-18T23:38:21.336Z,11.19
2023-04-18T23:42:25.625Z,11.17
2023-04-18T23:46:28.717Z,11.17
2023-04-18T23:50:31.653Z,11.17
2023-04-18T23:54:34.565Z,11.13
2023-04-18T23:58:38.907Z,11.14
